Terminal Aerodrome Forecast
Issued by NWS

Home | Current Version | Previous Version | Text Only | Print | Product List | Glossary On
Versions: 1 2 3 4 5 6 7 8 9 10 11 12 13 14 15 16 17 18 19 20 21 22 23 24
194
FTUS45 KPSR 240524
TAFPHX
TAF
KPHX 240524Z 2406/2506 24007KT P6SM SKC
     FM241000 VRB04KT P6SM SKC
     FM241900 25006KT P6SM SCT250=

USA.gov is the U.S. government's official web portal to all federal, state and local government web resources and services.